Jamestown, Kansas
Current Conditions -  °F | °C
As of 9:55 AM on Thursday 27 Nov 2014 (Local Time) from KCNK Reporting Station
Clear Clear  
Wind Chill: 16°   Ceiling: Unl
Heat Index: 24°   Visibility: 10mi
Dew Point: 15°   Wind: 7mph
Humidity: 69%   Direction: 130°SE
Pressure: 30.5"   Gusts: NA
Location:  39.6°N, 97.86°W
Report Text: KCNK 271555Z AUTO 13006KT 10SM CLR M04/M09 A3050 RMK AO2 SLP347 T10441094
Loading
Personal Weather Stations






























Interactive Weather Map New forecast layout! Learn more

10-Day Weather Forecast

Advertisements
Track Severe Weather on mobile